createdAt,value
2022-08-27T00:02:16.088Z,18.70
2022-08-27T00:07:17.871Z,18.60
2022-08-27T00:12:19.512Z,18.60
2022-08-27T00:17:21.192Z,18.50
2022-08-27T00:22:22.831Z,18.40
2022-08-27T00:27:24.427Z,18.30
2022-08-27T00:32:26.030Z,18.30
2022-08-27T00:37:27.783Z,18.20
2022-08-27T00:42:29.513Z,18.10
2022-08-27T00:47:32.772Z,18.00
2022-08-27T00:52:34.389Z,17.90
2022-08-27T00:57:36.078Z,17.90
2022-08-27T01:02:37.745Z,17.80
2022-08-27T01:07:39.608Z,17.70
2022-08-27T01:12:41.588Z,17.60
2022-08-27T01:17:43.619Z,17.60
2022-08-27T01:22:45.268Z,17.50
2022-08-27T01:27:46.891Z,17.40
2022-08-27T01:32:48.496Z,17.30
2022-08-27T01:37:50.089Z,17.20
2022-08-27T01:42:54.308Z,17.10
2022-08-27T01:47:55.922Z,17.10
2022-08-27T01:52:57.519Z,17.00
2022-08-27T01:57:59.286Z,16.90
2022-08-27T02:03:00.943Z,16.90
2022-08-27T02:08:02.573Z,16.80
2022-08-27T02:13:05.207Z,16.70
2022-08-27T02:18:07.049Z,16.70
2022-08-27T02:23:08.663Z,16.60
2022-08-27T02:28:10.427Z,16.50
2022-08-27T02:33:12.086Z,16.50
2022-08-27T02:38:13.678Z,16.40
2022-08-27T02:43:15.965Z,16.30
2022-08-27T02:48:17.771Z,16.30
2022-08-27T02:53:19.420Z,16.20
2022-08-27T02:58:21.260Z,16.20
2022-08-27T03:03:23.027Z,16.10
2022-08-27T03:08:24.661Z,16.10
2022-08-27T03:13:26.245Z,16.00
2022-08-27T03:18:27.866Z,16.00
2022-08-27T03:23:29.456Z,15.90
2022-08-27T03:28:31.069Z,15.90
2022-08-27T03:33:32.686Z,15.80
2022-08-27T03:38:34.379Z,15.90
2022-08-27T03:43:36.102Z,15.90
2022-08-27T03:48:37.731Z,15.90
2022-08-27T03:53:39.565Z,15.90
2022-08-27T03:58:41.143Z,16.10
2022-08-27T04:03:42.814Z,16.10
2022-08-27T04:08:44.432Z,16.30
2022-08-27T04:13:46.338Z,16.50
2022-08-27T04:18:48.094Z,16.60
2022-08-27T04:23:49.864Z,16.60
2022-08-27T04:28:51.579Z,16.60
2022-08-27T04:33:53.182Z,16.60
2022-08-27T04:38:54.793Z,16.60
2022-08-27T04:43:56.550Z,16.60
2022-08-27T04:48:58.164Z,16.60
2022-08-27T04:53:59.950Z,16.60
2022-08-27T04:59:02.759Z,16.70
2022-08-27T05:04:04.399Z,16.70
2022-08-27T05:09:06.167Z,16.90
2022-08-27T05:14:07.796Z,17.00
2022-08-27T05:19:09.459Z,17.20
2022-08-27T05:24:11.116Z,18.20
2022-08-27T05:29:12.724Z,19.40
2022-08-27T05:34:16.510Z,20.40
2022-08-27T05:39:20.881Z,21.10
2022-08-27T05:44:41.123Z,21.60
2022-08-27T05:49:43.099Z,22.10
2022-08-27T05:54:44.723Z,22.50
2022-08-27T05:59:46.361Z,22.90
2022-08-27T06:04:48.118Z,23.40
2022-08-27T06:09:49.866Z,23.90
2022-08-27T06:14:51.443Z,24.30
2022-08-27T06:19:55.901Z,24.80
2022-08-27T06:24:57.540Z,25.30
2022-08-27T06:29:59.138Z,25.70
2022-08-27T06:35:00.780Z,26.10
2022-08-27T06:40:02.430Z,26.40
2022-08-27T06:45:04.065Z,26.40
2022-08-27T06:50:05.784Z,26.60
2022-08-27T06:55:07.549Z,26.80
2022-08-27T07:00:09.281Z,27.30
2022-08-27T07:05:11.051Z,27.70
2022-08-27T07:10:12.725Z,27.90
2022-08-27T07:15:14.559Z,28.30
2022-08-27T07:20:17.180Z,28.80
2022-08-27T07:25:18.803Z,29.20
2022-08-27T07:30:20.459Z,29.50
2022-08-27T07:35:22.202Z,29.90
2022-08-27T07:40:23.889Z,30.20
2022-08-27T07:45:26.286Z,30.40
2022-08-27T07:50:27.892Z,30.40
2022-08-27T07:55:29.540Z,30.50
2022-08-27T08:00:31.299Z,30.70
2022-08-27T08:05:33.039Z,30.70
2022-08-27T08:10:35.586Z,30.90
2022-08-27T08:15:37.256Z,31.10
2022-08-27T08:20:57.054Z,31.10
2022-08-27T08:26:00.128Z,31.20
2022-08-27T08:31:01.889Z,31.10
2022-08-27T08:36:03.613Z,31.20
2022-08-27T08:41:05.421Z,31.20
2022-08-27T08:46:07.069Z,31.10
2022-08-27T08:51:08.728Z,30.90
2022-08-27T08:56:10.338Z,30.70
2022-08-27T09:01:12.019Z,30.40
2022-08-27T09:06:13.718Z,30.60
2022-08-27T09:11:15.319Z,30.50
2022-08-27T09:16:17.000Z,30.30
2022-08-27T09:21:18.620Z,30.40
2022-08-27T09:26:29.625Z,30.30
2022-08-27T09:31:31.234Z,30.40
2022-08-27T09:36:32.835Z,30.60
2022-08-27T09:41:34.493Z,30.80
2022-08-27T09:46:36.315Z,30.80
2022-08-27T09:51:37.924Z,30.80
2022-08-27T09:56:39.512Z,31.10
2022-08-27T10:01:41.133Z,31.50
2022-08-27T10:06:42.755Z,31.50
2022-08-27T10:11:44.373Z,31.10
2022-08-27T10:16:46.095Z,30.90
2022-08-27T10:21:47.750Z,31.10
2022-08-27T10:26:49.409Z,31.30
2022-08-27T10:31:51.245Z,31.30
2022-08-27T10:36:52.927Z,31.40
2022-08-27T10:41:54.653Z,31.70
2022-08-27T10:46:56.341Z,32.00
2022-08-27T10:51:57.928Z,32.20
2022-08-27T10:57:22.733Z,32.30
2022-08-27T11:02:21.456Z,32.30
2022-08-27T11:07:23.221Z,32.40
2022-08-27T11:12:24.863Z,32.20
2022-08-27T11:17:26.704Z,32.00
2022-08-27T11:22:33.819Z,31.70
2022-08-27T11:27:35.434Z,31.70
2022-08-27T11:32:37.075Z,31.70
2022-08-27T11:37:38.742Z,31.60
2022-08-27T11:42:40.361Z,31.50
2022-08-27T11:47:42.266Z,31.60
2022-08-27T11:52:44.018Z,31.60
2022-08-27T11:57:45.606Z,31.80
2022-08-27T12:02:47.208Z,31.60
2022-08-27T12:07:48.807Z,31.70
2022-08-27T12:12:50.696Z,31.80
2022-08-27T12:17:52.456Z,32.10
2022-08-27T12:22:54.106Z,32.30
2022-08-27T12:27:55.696Z,32.30
2022-08-27T12:32:57.394Z,32.50
2022-08-27T12:37:58.986Z,32.30
2022-08-27T12:43:00.615Z,32.50
2022-08-27T12:48:02.206Z,32.60
2022-08-27T12:53:04.109Z,32.30
2022-08-27T12:58:05.714Z,32.30
2022-08-27T13:03:07.625Z,32.50
2022-08-27T13:08:09.309Z,32.30
2022-08-27T13:13:11.173Z,32.00
2022-08-27T13:18:13.137Z,31.80
2022-08-27T13:23:18.503Z,32.00
2022-08-27T13:28:22.029Z,32.00
2022-08-27T13:33:23.683Z,31.70
2022-08-27T13:38:25.522Z,31.60
2022-08-27T13:43:27.110Z,31.50
2022-08-27T13:48:32.485Z,31.40
2022-08-27T13:53:34.072Z,31.40
2022-08-27T13:58:35.694Z,31.20
2022-08-27T14:03:37.289Z,31.30
2022-08-27T14:08:39.182Z,31.30
2022-08-27T14:13:40.835Z,31.20
2022-08-27T14:19:00.436Z,30.80
2022-08-27T14:24:02.309Z,30.50
2022-08-27T14:29:03.987Z,30.30
2022-08-27T14:34:14.021Z,30.30
2022-08-27T14:39:15.724Z,30.30
2022-08-27T14:44:18.188Z,30.20
2022-08-27T14:49:20.571Z,30.00
2022-08-27T14:54:22.203Z,29.90
2022-08-27T14:59:30.888Z,29.70
2022-08-27T15:04:32.522Z,29.60
2022-08-27T15:09:34.315Z,29.40
2022-08-27T15:14:36.019Z,29.10
2022-08-27T15:19:37.908Z,29.00
2022-08-27T15:24:39.666Z,29.10
2022-08-27T15:29:41.256Z,29.20
2022-08-27T15:34:42.861Z,29.10
2022-08-27T15:39:44.624Z,29.20
2022-08-27T15:44:46.365Z,29.20
2022-08-27T15:49:48.144Z,29.20
2022-08-27T15:54:49.768Z,29.40
2022-08-27T15:59:51.327Z,29.40
2022-08-27T16:04:52.926Z,29.20
2022-08-27T16:09:54.503Z,29.20
2022-08-27T16:14:56.173Z,29.20
2022-08-27T16:19:57.834Z,29.30
2022-08-27T16:24:59.722Z,29.30
2022-08-27T16:30:01.297Z,29.40
2022-08-27T16:35:02.918Z,29.20
2022-08-27T16:40:04.787Z,29.20
2022-08-27T16:45:06.427Z,29.40
2022-08-27T16:50:08.206Z,29.40
2022-08-27T16:55:09.885Z,29.50
2022-08-27T17:00:11.483Z,29.70
2022-08-27T17:05:33.442Z,29.70
2022-08-27T17:10:34.643Z,29.70
2022-08-27T17:15:36.464Z,29.60
2022-08-27T17:20:38.157Z,29.30
2022-08-27T17:25:39.882Z,29.00
2022-08-27T17:30:41.528Z,28.60
2022-08-27T17:35:43.414Z,28.30
2022-08-27T17:40:45.031Z,28.20
2022-08-27T17:45:47.292Z,28.00
2022-08-27T17:50:48.883Z,27.70
2022-08-27T17:55:50.452Z,27.30
2022-08-27T18:00:52.158Z,27.00
2022-08-27T18:05:53.722Z,26.60
2022-08-27T18:10:55.370Z,26.40
2022-08-27T18:15:56.948Z,26.10
2022-08-27T18:20:58.546Z,25.90
2022-08-27T18:26:00.340Z,25.80
2022-08-27T18:31:06.481Z,25.60
2022-08-27T18:36:08.524Z,25.40
2022-08-27T18:41:10.079Z,25.10
2022-08-27T18:46:12.471Z,24.90
2022-08-27T18:51:14.072Z,24.80
2022-08-27T18:56:16.866Z,24.70
2022-08-27T19:01:19.031Z,24.50
2022-08-27T19:06:20.870Z,24.30
2022-08-27T19:11:22.431Z,24.20
2022-08-27T19:16:24.200Z,24.10
2022-08-27T19:21:25.908Z,23.90
2022-08-27T19:26:27.464Z,23.80
2022-08-27T19:31:29.142Z,23.70
2022-08-27T19:36:30.753Z,23.50
2022-08-27T19:41:32.598Z,23.30
2022-08-27T19:46:34.338Z,23.10
2022-08-27T19:51:35.958Z,22.90
2022-08-27T19:56:37.523Z,22.80
2022-08-27T20:01:39.137Z,22.70
2022-08-27T20:06:40.751Z,22.60
2022-08-27T20:11:42.315Z,22.50
2022-08-27T20:16:43.949Z,22.40
2022-08-27T20:21:45.984Z,22.30
2022-08-27T20:26:47.825Z,22.20
2022-08-27T20:31:49.418Z,22.10
2022-08-27T20:36:51.050Z,22.00
2022-08-27T20:41:54.872Z,21.90
2022-08-27T20:46:56.447Z,21.80
2022-08-27T20:52:02.744Z,21.70
2022-08-27T20:57:05.808Z,21.60
2022-08-27T21:02:07.533Z,21.50
2022-08-27T21:07:09.209Z,21.40
2022-08-27T21:12:10.847Z,21.20
2022-08-27T21:17:12.491Z,21.20
2022-08-27T21:22:14.038Z,21.10
2022-08-27T21:27:15.597Z,21.00
2022-08-27T21:32:17.457Z,20.90
2022-08-27T21:37:19.209Z,20.90
2022-08-27T21:42:20.969Z,20.80
2022-08-27T21:47:22.535Z,20.70
2022-08-27T21:52:24.147Z,20.60
2022-08-27T21:57:25.714Z,20.50
2022-08-27T22:02:39.679Z,20.50
2022-08-27T22:07:41.634Z,20.30
2022-08-27T22:12:43.214Z,20.30
2022-08-27T22:17:48.237Z,20.30
2022-08-27T22:22:52.544Z,20.20
2022-08-27T22:27:54.209Z,20.20
2022-08-27T22:32:55.764Z,20.10
2022-08-27T22:37:57.395Z,20.00
2022-08-27T22:43:00.096Z,20.00
2022-08-27T22:48:01.650Z,19.90
2022-08-27T22:53:03.421Z,19.90
2022-08-27T22:58:05.039Z,19.80
2022-08-27T23:03:06.909Z,19.70
2022-08-27T23:08:08.711Z,19.70
2022-08-27T23:13:10.386Z,19.60
2022-08-27T23:18:12.288Z,19.60
2022-08-27T23:23:14.023Z,19.60
2022-08-27T23:28:16.030Z,19.50
2022-08-27T23:33:18.084Z,19.40
2022-08-27T23:38:19.805Z,19.40
2022-08-27T23:43:21.545Z,19.40
2022-08-27T23:48:23.314Z,19.30
2022-08-27T23:53:25.081Z,19.30
2022-08-27T23:58:26.835Z,19.30
